createdAt,value
2022-12-19T00:01:33.629Z,15.10
2022-12-19T00:04:38.221Z,10.27
2022-12-19T00:07:42.979Z,12.90
2022-12-19T00:10:57.672Z,16.90
2022-12-19T00:14:02.378Z,18.42
2022-12-19T00:17:06.762Z,9.57
2022-12-19T00:20:11.921Z,14.45
2022-12-19T00:23:19.085Z,12.95
2022-12-19T00:26:28.882Z,23.50
2022-12-19T00:29:33.598Z,13.45
2022-12-19T00:35:43.133Z,15.52
2022-12-19T00:38:49.311Z,8.95
2022-12-19T00:41:53.733Z,26.42
2022-12-19T00:44:59.769Z,23.80
2022-12-19T00:48:04.108Z,15.20
2022-12-19T00:51:20.033Z,9.95
2022-12-19T00:54:24.980Z,11.45
2022-12-19T00:57:30.189Z,11.48
2022-12-19T01:00:34.615Z,12.82
2022-12-19T01:03:39.205Z,9.10
2022-12-19T01:06:43.722Z,8.20
2022-12-19T01:09:49.704Z,9.30
2022-12-19T01:12:55.663Z,23.20
2022-12-19T01:16:08.861Z,8.75
2022-12-19T01:19:13.170Z,9.10
2022-12-19T01:22:17.748Z,14.48
2022-12-19T01:25:23.682Z,27.30
2022-12-19T01:28:28.434Z,13.45
2022-12-19T01:31:34.086Z,12.48
2022-12-19T01:34:40.214Z,14.80
2022-12-19T01:37:44.657Z,11.40
2022-12-19T01:40:55.252Z,17.23
2022-12-19T01:44:02.566Z,55.38
2022-12-19T01:47:15.555Z,26.38
2022-12-19T01:50:57.297Z,4.97
2022-12-19T01:54:09.934Z,28.00
2022-12-19T01:57:17.619Z,20.20
2022-12-19T02:00:22.800Z,31.83
2022-12-19T02:03:33.555Z,8.48
2022-12-19T02:06:40.426Z,26.52
2022-12-19T02:09:50.572Z,32.90
2022-12-19T02:13:10.023Z,15.80
2022-12-19T02:16:34.884Z,10.15
2022-12-19T02:20:08.795Z,13.63
2022-12-19T02:23:50.606Z,9.60
2022-12-19T02:27:25.229Z,4.57
2022-12-19T02:30:38.821Z,12.32
2022-12-19T02:33:49.235Z,10.45
2022-12-19T02:37:11.846Z,45.80
2022-12-19T02:40:34.961Z,6.40
2022-12-19T02:43:46.136Z,13.30
2022-12-19T02:46:54.569Z,19.63
2022-12-19T02:50:04.071Z,14.07
2022-12-19T02:53:12.003Z,33.63
2022-12-19T02:56:16.600Z,13.55
2022-12-19T02:59:53.783Z,10.02
2022-12-19T03:03:06.217Z,8.13
2022-12-19T03:06:27.469Z,7.90
2022-12-19T03:09:35.079Z,5.55
2022-12-19T03:12:55.115Z,12.15
2022-12-19T03:16:02.807Z,7.05
2022-12-19T03:19:11.909Z,19.35
2022-12-19T03:22:16.558Z,11.23
2022-12-19T03:25:24.102Z,8.75
2022-12-19T03:28:37.960Z,8.88
2022-12-19T03:31:44.327Z,354.60
2022-12-19T03:35:18.233Z,11.73
2022-12-19T03:38:24.381Z,33.60
2022-12-19T03:41:47.487Z,17.13
2022-12-19T03:44:54.572Z,15.20
2022-12-19T03:48:05.137Z,11.65
2022-12-19T03:51:31.319Z,8.43
2022-12-19T03:54:43.357Z,11.77
2022-12-19T03:58:07.010Z,13.45
2022-12-19T04:01:12.066Z,18.48
2022-12-19T04:04:18.133Z,40.42
2022-12-19T04:07:23.905Z,20.35
2022-12-19T04:10:30.239Z,32.55
2022-12-19T04:13:40.074Z,70.18
2022-12-19T04:16:56.892Z,44.35
2022-12-19T04:20:08.692Z,94.35
2022-12-19T04:23:26.479Z,13.13
2022-12-19T04:26:32.782Z,42.97
2022-12-19T04:29:39.893Z,18.63
2022-12-19T04:32:47.331Z,16.65
2022-12-19T04:35:52.263Z,20.95
2022-12-19T04:38:56.597Z,28.35
2022-12-19T04:42:01.395Z,25.43
2022-12-19T04:45:07.197Z,41.40
2022-12-19T04:48:12.060Z,25.20
2022-12-19T04:51:17.506Z,4.20
2022-12-19T04:57:26.231Z,33.72
2022-12-19T05:00:30.654Z,13.10
2022-12-19T05:03:36.045Z,7.77
2022-12-19T05:09:45.060Z,5.63
2022-12-19T05:12:49.383Z,11.77
2022-12-19T05:16:01.246Z,90.50
2022-12-19T05:19:05.885Z,11.07
2022-12-19T05:22:10.338Z,7.25
2022-12-19T05:25:14.857Z,9.27
2022-12-19T05:28:20.064Z,7.53
2022-12-19T05:31:24.667Z,8.82
2022-12-19T05:34:29.154Z,4.78
2022-12-19T05:37:34.243Z,12.37
2022-12-19T05:40:38.879Z,8.02
2022-12-19T05:43:50.558Z,5.88
2022-12-19T05:46:55.188Z,37.92
2022-12-19T05:49:59.580Z,10.93
2022-12-19T05:53:04.163Z,117.53
2022-12-19T05:56:16.631Z,6.07
2022-12-19T05:59:21.092Z,8.68
2022-12-19T06:02:26.149Z,5.43
2022-12-19T06:05:33.258Z,10.85
2022-12-19T06:08:37.841Z,120.30
2022-12-19T06:11:43.342Z,37.37
2022-12-19T06:14:47.934Z,11.63
2022-12-19T06:17:57.620Z,13.70
2022-12-19T06:21:05.415Z,9.02
2022-12-19T06:24:10.044Z,7.95
2022-12-19T06:27:14.662Z,13.88
2022-12-19T06:30:21.730Z,8.80
2022-12-19T06:33:27.031Z,8.38
2022-12-19T06:39:36.896Z,6.03
2022-12-19T06:42:41.520Z,7.85
2022-12-19T06:45:45.938Z,7.57
2022-12-19T06:48:50.735Z,12.18
2022-12-19T06:51:55.202Z,10.23
2022-12-19T06:54:59.761Z,9.35
2022-12-19T06:58:04.531Z,11.43
2022-12-19T07:01:09.529Z,9.82
2022-12-19T07:04:17.412Z,9.02
2022-12-19T07:07:22.182Z,11.60
2022-12-19T07:10:29.393Z,11.38
2022-12-19T07:13:35.101Z,14.00
2022-12-19T07:16:39.980Z,51.72
2022-12-19T07:19:45.964Z,30.02
2022-12-19T07:22:50.857Z,40.15
2022-12-19T07:25:55.852Z,42.70
2022-12-19T07:29:01.601Z,32.83
2022-12-19T07:32:06.128Z,26.35
2022-12-19T07:35:11.442Z,18.45
2022-12-19T07:38:15.898Z,23.98
2022-12-19T07:41:20.342Z,24.25
2022-12-19T07:44:24.679Z,23.33
2022-12-19T07:47:29.453Z,160.45
2022-12-19T07:50:34.491Z,70.07
2022-12-19T07:53:39.223Z,48.60
2022-12-19T07:56:44.062Z,91.10
2022-12-19T07:59:48.716Z,128.32
2022-12-19T08:02:53.632Z,159.32
2022-12-19T08:06:03.025Z,115.18
2022-12-19T08:09:07.770Z,82.53
2022-12-19T08:12:12.100Z,50.47
2022-12-19T08:15:16.897Z,90.35
2022-12-19T08:18:21.330Z,65.60
2022-12-19T08:21:26.259Z,83.22
2022-12-19T08:24:31.737Z,120.47
2022-12-19T08:27:36.447Z,72.78
2022-12-19T08:30:42.301Z,152.27
2022-12-19T08:33:48.391Z,193.60
2022-12-19T08:36:52.902Z,177.05
2022-12-19T08:39:57.263Z,347.77
2022-12-19T08:43:01.907Z,223.45
2022-12-19T08:46:07.713Z,117.80
2022-12-19T08:49:12.265Z,61.83
2022-12-19T08:52:18.852Z,192.55
2022-12-19T08:55:23.245Z,183.32
2022-12-19T08:58:29.617Z,187.55
2022-12-19T09:01:34.301Z,226.57
2022-12-19T09:05:50.861Z,187.60
2022-12-19T09:08:03.527Z,219.60
2022-12-19T09:11:17.264Z,207.82
2022-12-19T09:14:22.778Z,212.63
2022-12-19T09:17:27.262Z,237.13
2022-12-19T09:20:32.091Z,221.55
2022-12-19T09:23:37.394Z,195.60
2022-12-19T09:26:43.057Z,184.32
2022-12-19T09:29:47.878Z,100.50
2022-12-19T09:32:52.584Z,157.32
2022-12-19T09:35:58.056Z,167.10
2022-12-19T09:39:02.839Z,161.75
2022-12-19T09:42:25.464Z,239.15
2022-12-19T09:45:39.871Z,132.70
2022-12-19T09:48:52.496Z,93.13
2022-12-19T09:52:26.989Z,141.80
2022-12-19T09:55:40.892Z,92.22
2022-12-19T09:59:03.263Z,105.25
2022-12-19T10:02:26.042Z,87.25
2022-12-19T10:07:07.740Z,69.10
2022-12-19T10:11:06.461Z,69.03
2022-12-19T10:13:34.470Z,74.78
2022-12-19T10:17:23.050Z,49.00
2022-12-19T10:20:28.501Z,56.45
2022-12-19T10:23:57.665Z,44.88
2022-12-19T10:27:07.963Z,43.35
2022-12-19T10:30:21.935Z,24.65
2022-12-19T10:33:36.552Z,51.80
2022-12-19T10:40:28.437Z,26.65
2022-12-19T10:43:56.592Z,24.85
2022-12-19T10:47:01.378Z,25.20
2022-12-19T10:50:15.786Z,17.67
2022-12-19T10:53:29.929Z,24.63
2022-12-19T10:56:37.693Z,19.98
2022-12-19T11:00:02.537Z,29.55
2022-12-19T11:03:18.998Z,24.35
2022-12-19T11:06:36.303Z,30.42
2022-12-19T11:09:49.619Z,18.63
2022-12-19T11:18:57.068Z,32.22
2022-12-19T11:23:40.995Z,27.65
2022-12-19T11:29:47.127Z,18.63
2022-12-19T11:29:54.222Z,15.30
2022-12-19T11:30:41.131Z,39.35
2022-12-19T11:34:52.413Z,50.17
2022-12-19T11:38:01.582Z,92.30
2022-12-19T11:41:40.150Z,211.05
2022-12-19T11:45:17.410Z,56.70
2022-12-19T11:48:26.071Z,91.55
2022-12-19T11:51:36.287Z,64.53
2022-12-19T11:55:06.948Z,77.88
2022-12-19T11:58:12.758Z,73.78
2022-12-19T12:01:26.188Z,45.25
2022-12-19T12:05:14.461Z,83.78
2022-12-19T12:12:39.388Z,27.95
2022-12-19T12:20:29.559Z,18.92
2022-12-19T12:25:57.835Z,29.77
2022-12-19T12:31:06.910Z,41.50
2022-12-19T12:31:44.721Z,109.57
2022-12-19T12:31:49.684Z,34.17
2022-12-19T12:38:40.021Z,21.75
2022-12-19T12:42:18.345Z,33.13
2022-12-19T12:45:37.441Z,10.00
2022-12-19T12:49:09.393Z,20.33
2022-12-19T12:52:38.113Z,11.27
2022-12-19T12:55:44.249Z,21.35
2022-12-19T12:58:50.107Z,31.17
2022-12-19T13:02:14.741Z,75.53
2022-12-19T13:05:39.659Z,47.85
2022-12-19T13:08:49.025Z,144.30
2022-12-19T13:12:23.714Z,244.48
2022-12-19T13:15:28.277Z,245.15
2022-12-19T13:18:38.673Z,182.82
2022-12-19T13:22:08.826Z,219.73
2022-12-19T13:25:37.495Z,86.60
2022-12-19T13:28:43.611Z,34.63
2022-12-19T13:32:11.673Z,413.58
2022-12-19T13:37:32.422Z,239.85
2022-12-19T13:40:01.315Z,178.48
2022-12-19T13:42:46.482Z,98.65
2022-12-19T13:45:58.645Z,98.35
2022-12-19T13:49:35.161Z,23.65
2022-12-19T13:52:40.719Z,59.65
2022-12-19T13:55:45.478Z,46.15
2022-12-19T13:58:51.808Z,36.22
2022-12-19T14:01:57.506Z,71.97
2022-12-19T14:05:02.915Z,36.50
2022-12-19T14:08:09.138Z,53.65
2022-12-19T14:11:45.230Z,69.38
2022-12-19T14:15:13.081Z,34.15
2022-12-19T14:18:42.473Z,36.50
2022-12-19T14:22:10.740Z,16.30
2022-12-19T14:27:57.495Z,12.48
2022-12-19T14:28:54.541Z,13.10
2022-12-19T14:33:41.968Z,13.23
2022-12-19T14:36:10.646Z,8.90
2022-12-19T14:39:22.943Z,26.33
2022-12-19T14:43:57.212Z,17.10
2022-12-19T14:53:08.569Z,21.35
2022-12-19T14:54:11.035Z,21.45
2022-12-19T14:54:29.754Z,31.83
2022-12-19T14:56:59.928Z,21.55
2022-12-19T15:01:08.310Z,39.00
2022-12-19T15:04:52.576Z,17.90
2022-12-19T15:07:34.863Z,38.38
2022-12-19T15:11:02.548Z,10.15
2022-12-19T15:14:54.059Z,10.35
2022-12-19T15:17:30.801Z,21.00
2022-12-19T15:23:39.736Z,4.40
2022-12-19T15:26:55.628Z,13.35
2022-12-19T15:30:00.400Z,22.85
2022-12-19T15:33:06.403Z,29.67
2022-12-19T15:36:11.581Z,18.02
2022-12-19T15:39:16.339Z,79.45
2022-12-19T15:42:26.101Z,49.53
2022-12-19T15:45:32.991Z,21.52
2022-12-19T15:48:41.744Z,18.45
2022-12-19T15:51:47.062Z,20.50
2022-12-19T15:54:51.762Z,16.92
2022-12-19T15:58:06.743Z,15.38
2022-12-19T16:01:13.426Z,17.00
2022-12-19T16:04:18.781Z,61.38
2022-12-19T16:07:26.341Z,13.30
2022-12-19T16:10:31.074Z,48.22
2022-12-19T16:13:36.559Z,41.97
2022-12-19T16:16:41.651Z,37.08
2022-12-19T16:19:46.095Z,75.68
2022-12-19T16:22:51.163Z,47.65
2022-12-19T16:25:56.469Z,60.40
2022-12-19T16:29:01.387Z,29.25
2022-12-19T16:32:06.737Z,71.90
2022-12-19T16:35:40.403Z,61.72
2022-12-19T16:38:47.774Z,12.57
2022-12-19T16:41:52.789Z,30.38
2022-12-19T16:44:57.628Z,14.65
2022-12-19T16:48:02.352Z,20.60
2022-12-19T16:51:07.596Z,4.50
2022-12-19T16:54:14.057Z,19.73
2022-12-19T16:57:22.850Z,13.52
2022-12-19T17:00:27.384Z,5.68
2022-12-19T17:03:42.401Z,35.65
2022-12-19T17:06:47.138Z,70.35
2022-12-19T17:09:51.572Z,21.63
2022-12-19T17:19:06.131Z,12.23
2022-12-19T17:22:16.181Z,49.33
2022-12-19T17:25:24.626Z,23.02
2022-12-19T17:28:30.490Z,52.42
2022-12-19T17:31:38.974Z,21.95
2022-12-19T17:34:44.514Z,33.55
2022-12-19T17:37:57.071Z,15.48
2022-12-19T17:41:01.406Z,18.90
2022-12-19T17:44:06.238Z,11.20
2022-12-19T17:47:19.841Z,18.40
2022-12-19T17:50:27.747Z,6.25
2022-12-19T17:53:32.341Z,7.32
2022-12-19T17:56:36.794Z,17.60
2022-12-19T17:59:42.852Z,13.75
2022-12-19T18:02:49.495Z,8.43
2022-12-19T18:05:56.019Z,25.27
2022-12-19T18:09:03.468Z,29.58
2022-12-19T18:12:08.072Z,10.82
2022-12-19T18:15:12.879Z,15.98
2022-12-19T18:18:23.972Z,5.93
2022-12-19T18:21:28.405Z,16.45
2022-12-19T18:27:37.856Z,36.47
2022-12-19T18:30:44.221Z,24.77
2022-12-19T18:33:49.871Z,18.50
2022-12-19T18:36:54.987Z,15.88
2022-12-19T18:39:59.464Z,18.83
2022-12-19T18:46:08.573Z,12.63
2022-12-19T18:49:17.677Z,16.83
2022-12-19T18:52:21.988Z,30.33
2022-12-19T18:58:32.158Z,16.05
2022-12-19T19:01:48.234Z,7.72
2022-12-19T19:04:53.014Z,10.55
2022-12-19T19:07:58.876Z,19.90
2022-12-19T19:11:03.920Z,28.77
2022-12-19T19:14:08.558Z,32.97
2022-12-19T19:17:29.490Z,32.55
2022-12-19T19:20:40.589Z,17.25
2022-12-19T19:23:50.393Z,22.33
2022-12-19T19:26:55.048Z,34.17
2022-12-19T19:29:59.594Z,29.67
2022-12-19T19:36:28.932Z,36.33
2022-12-19T19:39:35.365Z,45.17
2022-12-19T19:42:39.921Z,36.63
2022-12-19T19:45:44.663Z,22.85
2022-12-19T19:48:49.133Z,35.08
2022-12-19T19:55:08.429Z,94.85
2022-12-19T19:58:12.871Z,69.53
2022-12-19T20:01:17.555Z,157.05
2022-12-19T20:04:22.253Z,106.07
2022-12-19T20:07:26.819Z,87.65
2022-12-19T20:10:31.240Z,60.42
2022-12-19T20:13:35.774Z,65.07
2022-12-19T20:16:40.183Z,30.45
2022-12-19T20:19:44.531Z,62.80
2022-12-19T20:25:53.331Z,35.33
2022-12-19T20:32:02.072Z,34.08
2022-12-19T20:35:12.361Z,96.43
2022-12-19T20:38:18.936Z,60.17
2022-12-19T20:41:23.752Z,67.10
2022-12-19T20:44:28.260Z,71.68
2022-12-19T20:47:32.759Z,71.75
2022-12-19T20:50:42.708Z,91.75
2022-12-19T20:53:48.610Z,53.97
2022-12-19T20:56:53.211Z,52.83
2022-12-19T20:59:58.012Z,22.35
2022-12-19T21:03:28.036Z,40.85
2022-12-19T21:06:28.258Z,42.88
2022-12-19T21:09:32.686Z,17.38
2022-12-19T21:15:44.583Z,10.18
2022-12-19T21:18:49.844Z,52.88
2022-12-19T21:21:54.236Z,48.75
2022-12-19T21:28:02.666Z,31.17
2022-12-19T21:31:19.746Z,35.72
2022-12-19T21:34:24.552Z,86.47
2022-12-19T21:37:29.065Z,100.85
2022-12-19T21:43:38.223Z,65.47
2022-12-19T21:46:42.660Z,76.85
2022-12-19T21:52:55.740Z,102.73
2022-12-19T21:56:05.526Z,178.85
2022-12-19T21:59:15.775Z,233.27
2022-12-19T22:02:20.285Z,253.38
2022-12-19T22:05:24.898Z,217.95
2022-12-19T22:08:29.745Z,131.73
2022-12-19T22:11:34.287Z,225.27
2022-12-19T22:14:38.684Z,205.35
2022-12-19T22:17:44.609Z,61.95
2022-12-19T22:20:49.141Z,34.35
2022-12-19T22:23:54.093Z,41.50
2022-12-19T22:27:01.701Z,44.80
2022-12-19T22:30:10.872Z,42.10
2022-12-19T22:33:15.909Z,46.60
2022-12-19T22:36:27.626Z,31.60
2022-12-19T22:39:33.184Z,22.88
2022-12-19T22:42:37.823Z,39.30
2022-12-19T22:45:42.869Z,29.17
2022-12-19T22:48:48.894Z,9.38
2022-12-19T22:51:53.464Z,36.28
2022-12-19T22:54:58.064Z,21.17
2022-12-19T22:58:02.540Z,18.70
2022-12-19T23:01:17.425Z,28.60
2022-12-19T23:04:22.193Z,27.70
2022-12-19T23:07:26.971Z,34.75
2022-12-19T23:10:31.779Z,33.08
2022-12-19T23:13:36.830Z,39.88
2022-12-19T23:16:41.886Z,32.90
2022-12-19T23:19:46.493Z,25.38
2022-12-19T23:22:50.826Z,14.93
2022-12-19T23:25:55.868Z,57.45
2022-12-19T23:29:11.919Z,84.90
2022-12-19T23:32:16.333Z,24.60
2022-12-19T23:35:20.632Z,42.10
2022-12-19T23:41:29.420Z,86.75
2022-12-19T23:44:34.095Z,116.90
2022-12-19T23:47:38.943Z,78.25
2022-12-19T23:50:43.701Z,67.65
2022-12-19T23:53:48.787Z,28.23
2022-12-19T23:56:54.364Z,16.23
2022-12-19T23:59:58.879Z,164.30
